createdAt,value
2023-02-14T00:01:33.226Z,0.01
2023-02-14T02:15:01.129Z,0.02
2023-02-14T02:19:14.201Z,0.01
2023-02-14T02:58:47.298Z,0.02
2023-02-14T03:03:56.276Z,0.01
2023-02-14T03:26:24.322Z,0.02
2023-02-14T03:29:06.986Z,0.01
2023-02-14T04:04:55.655Z,0.02
2023-02-14T04:10:17.941Z,0.01
2023-02-14T04:22:44.281Z,0.02
2023-02-14T04:29:40.661Z,0.01
2023-02-14T04:44:29.276Z,0.02
2023-02-14T04:49:37.493Z,0.01
2023-02-14T05:21:31.691Z,0.02
2023-02-14T05:36:58.423Z,0.03
2023-02-14T05:43:36.291Z,0.04
2023-02-14T05:46:23.252Z,0.05
2023-02-14T05:53:20.009Z,0.06
2023-02-14T05:56:13.067Z,0.1
2023-02-14T05:58:52.119Z,0.12
2023-02-14T06:01:17.120Z,0.14
2023-02-14T06:03:28.253Z,0.2
2023-02-14T06:05:24.992Z,0.23
2023-02-14T06:08:09.996Z,0.34
2023-02-14T06:10:41.155Z,0.53
2023-02-14T06:12:58.451Z,0.76
2023-02-14T06:15:01.196Z,1.09
2023-02-14T06:17:52.639Z,1.7
2023-02-14T06:20:29.880Z,2.57
2023-02-14T06:22:52.566Z,3.69
2023-02-14T06:25:01.751Z,4.9
2023-02-14T06:27:59.186Z,7.25
2023-02-14T06:30:42.765Z,10.05
2023-02-14T06:33:11.970Z,13.04
2023-02-14T06:35:27.477Z,16.08
2023-02-14T06:37:28.733Z,19.25
2023-02-14T06:40:18.200Z,22.51
2023-02-14T06:42:53.819Z,25.32
2023-02-14T06:45:15.328Z,30.84
2023-02-14T06:47:22.621Z,32.63
2023-02-14T06:50:18.450Z,36.28
2023-02-14T06:53:00.339Z,41.68
2023-02-14T06:55:27.999Z,45.88
2023-02-14T06:57:41.548Z,48.82
2023-02-14T06:59:41.219Z,55.48
2023-02-14T07:02:29.179Z,67.92
2023-02-14T07:05:02.761Z,74.1
2023-02-14T07:07:22.415Z,79.98
2023-02-14T07:09:28.009Z,86.16
2023-02-14T07:12:21.801Z,98.16
2023-02-14T07:15:01.263Z,110.28
2023-02-14T07:17:26.939Z,119.96
2023-02-14T07:19:38.684Z,124.04
2023-02-14T07:21:36.556Z,125.52
2023-02-14T07:24:22.674Z,131.12
2023-02-14T07:26:54.670Z,131.28
2023-02-14T07:29:12.506Z,147.8
2023-02-14T07:31:16.491Z,160.12
2023-02-14T07:34:08.555Z,173.4
2023-02-14T07:36:46.672Z,193.6
2023-02-14T07:39:10.907Z,194
2023-02-14T07:41:21.019Z,207.8
2023-02-14T07:44:19.361Z,216.4
2023-02-14T07:47:03.863Z,242.9
2023-02-14T07:49:34.156Z,246.8
2023-02-14T07:51:50.143Z,246.2
2023-02-14T07:53:52.282Z,261.2
2023-02-14T07:56:42.491Z,271.4
2023-02-14T07:59:18.658Z,294
2023-02-14T08:01:40.807Z,315.2
2023-02-14T08:03:48.923Z,330.7
2023-02-14T08:06:45.020Z,312.3
2023-02-14T08:09:27.335Z,303.5
2023-02-14T08:11:55.853Z,319.2
2023-02-14T08:14:10.057Z,332
2023-02-14T08:16:10.318Z,342.8
2023-02-14T08:18:59.049Z,359.3
2023-02-14T08:21:33.605Z,362.8
2023-02-14T08:23:54.027Z,376.6
2023-02-14T08:26:00.709Z,384.1
2023-02-14T08:28:55.496Z,394.8
2023-02-14T08:31:36.723Z,389.9
2023-02-14T08:34:02.843Z,396.4
2023-02-14T08:36:15.368Z,408.6
2023-02-14T08:38:13.948Z,415.8
2023-02-14T08:41:00.952Z,408.6
2023-02-14T08:43:34.418Z,436.3
2023-02-14T08:45:52.261Z,455.8
2023-02-14T08:47:56.887Z,476.8
2023-02-14T08:50:49.926Z,486.4
2023-02-14T08:53:28.969Z,487.8
2023-02-14T08:55:53.897Z,484.9
2023-02-14T08:58:04.643Z,486.5
2023-02-14T09:00:01.692Z,504.4
2023-02-14T09:02:46.941Z,534.5
2023-02-14T09:05:18.094Z,537.7
2023-02-14T09:07:35.320Z,556.6
2023-02-14T09:09:38.418Z,560.8
2023-02-14T09:12:29.667Z,547.6
2023-02-14T09:15:06.868Z,558.7
2023-02-14T09:17:30.198Z,602.4
2023-02-14T09:19:39.142Z,628
2023-02-14T09:22:36.601Z,627.3
2023-02-14T09:25:19.936Z,624.3
2023-02-14T09:27:49.159Z,617.6
2023-02-14T09:30:04.232Z,627
2023-02-14T09:32:05.432Z,635.6
2023-02-14T09:34:54.434Z,678.7
2023-02-14T09:37:29.567Z,694.7
2023-02-14T09:39:50.839Z,705.9
2023-02-14T09:41:58.141Z,717.4
2023-02-14T09:44:53.562Z,719.3
2023-02-14T09:47:35.186Z,727
2023-02-14T09:50:02.263Z,728
2023-02-14T09:52:16.533Z,738.5
2023-02-14T09:54:14.938Z,774
2023-02-14T09:57:02.647Z,807
2023-02-14T09:59:36.227Z,815
2023-02-14T10:01:55.736Z,833.2
2023-02-14T10:04:01.261Z,838.4
2023-02-14T10:06:55.121Z,852.8
2023-02-14T10:09:34.840Z,816
2023-02-14T10:12:00.715Z,801.2
2023-02-14T10:14:12.357Z,805.7
2023-02-14T10:16:09.991Z,841.2
2023-02-14T10:18:56.013Z,893.4
2023-02-14T10:21:28.128Z,905.9
2023-02-14T10:23:45.962Z,904.9
2023-02-14T10:25:50.064Z,956.4
2023-02-14T10:28:42.244Z,963.5
2023-02-14T10:31:20.452Z,942.7
2023-02-14T10:33:44.291Z,966.7
2023-02-14T10:35:55.621Z,975.3
2023-02-14T10:38:52.636Z,986.5
2023-02-14T10:41:36.360Z,1036.4
2023-02-14T10:44:06.554Z,1057.2
2023-02-14T10:46:22.714Z,1074.8
2023-02-14T10:48:24.639Z,1030.7
2023-02-14T10:51:15.083Z,1026.8
2023-02-14T10:53:51.317Z,1003.8
2023-02-14T10:56:13.472Z,1016.3
2023-02-14T10:58:21.748Z,1026.5
2023-02-14T11:01:18.189Z,1080.9
2023-02-14T11:04:00.636Z,1102.7
2023-02-14T11:06:28.879Z,1128.6
2023-02-14T11:08:43.316Z,1107.8
2023-02-14T11:10:43.738Z,1094
2023-02-14T11:13:32.270Z,1115.8
2023-02-14T11:16:06.830Z,1112.6
2023-02-14T11:18:27.251Z,1114.2
2023-02-14T11:20:33.791Z,1110
2023-02-14T11:23:28.266Z,1125.4
2023-02-14T11:26:08.793Z,1138.8
2023-02-14T11:28:35.240Z,1143
2023-02-14T11:30:47.827Z,1166.4
2023-02-14T11:32:45.721Z,1210.2
2023-02-14T11:35:32.392Z,1266.8
2023-02-14T11:38:04.852Z,1226.5
2023-02-14T11:40:23.534Z,1201.9
2023-02-14T11:42:28.031Z,1239.3
2023-02-14T11:45:20.549Z,1240.6
2023-02-14T11:47:59.339Z,1185.6
2023-02-14T11:50:24.015Z,1216.6
2023-02-14T11:52:34.611Z,1317.1
2023-02-14T11:54:31.345Z,1273.6
2023-02-14T11:57:16.252Z,1240.3
2023-02-14T11:59:47.155Z,1241.6
2023-02-14T12:02:03.916Z,1242.2
2023-02-14T12:04:06.908Z,1247
2023-02-14T12:06:58.102Z,1256.3
2023-02-14T12:09:35.257Z,1241.2
2023-02-14T12:11:58.834Z,1315.8
2023-02-14T12:14:07.854Z,1364.4
2023-02-14T12:17:05.476Z,1346.5
2023-02-14T12:19:49.113Z,1337.6
2023-02-14T12:22:18.569Z,1323.5
2023-02-14T12:24:33.413Z,1351
2023-02-14T12:26:34.762Z,1391.3
2023-02-14T12:29:24.367Z,1424
2023-02-14T12:32:00.046Z,1362.5
2023-02-14T12:34:21.310Z,1298.8
2023-02-14T12:36:28.901Z,1342.7
2023-02-14T12:39:24.639Z,1322.2
2023-02-14T12:42:06.280Z,1357.4
2023-02-14T12:44:33.874Z,1375.3
2023-02-14T12:46:47.458Z,1366.4
2023-02-14T12:48:46.908Z,1429.1
2023-02-14T12:51:34.841Z,1444.4
2023-02-14T12:54:08.629Z,1406
2023-02-14T12:58:33.959Z,1476.4
2023-02-14T13:01:28.773Z,1430.4
2023-02-14T13:04:08.097Z,1401.6
2023-02-14T13:06:33.800Z,1388.1
2023-02-14T13:08:45.679Z,1388.8
2023-02-14T13:10:43.455Z,1383.6
2023-02-14T13:13:29.786Z,1363.2
2023-02-14T13:16:01.245Z,1358
2023-02-14T13:18:19.056Z,1293.1
2023-02-14T13:20:22.924Z,1291.5
2023-02-14T13:23:15.295Z,1319.6
2023-02-14T13:25:53.489Z,1356.1
2023-02-14T13:28:17.599Z,1302.4
2023-02-14T13:30:27.777Z,1359.3
2023-02-14T13:33:27.120Z,1303.3
2023-02-14T13:36:10.646Z,1350.4
2023-02-14T13:38:40.890Z,1404.1
2023-02-14T13:40:57.245Z,1408
2023-02-14T13:42:59.385Z,1398.4
2023-02-14T13:45:49.693Z,1408.6
2023-02-14T13:48:26.142Z,1322.8
2023-02-14T13:50:48.469Z,1381.1
2023-02-14T13:52:56.662Z,1365.7
2023-02-14T13:55:53.218Z,1423.3
2023-02-14T13:58:35.668Z,1400.3
2023-02-14T14:01:04.141Z,1395.8
2023-02-14T14:03:18.290Z,1310.7
2023-02-14T14:05:18.591Z,1309.7
2023-02-14T14:08:06.910Z,1329.9
2023-02-14T14:10:41.446Z,1296.6
2023-02-14T14:13:02.105Z,1262.4
2023-02-14T14:15:08.641Z,1272.9
2023-02-14T14:18:03.378Z,1500.8
2023-02-14T14:20:44.330Z,3040
2023-02-14T14:23:11.107Z,3820
2023-02-14T14:25:23.805Z,9016
2023-02-14T14:27:22.546Z,2976
2023-02-14T14:30:09.626Z,1569.2
2023-02-14T14:32:23.502Z,1488.6
2023-02-14T14:34:23.239Z,2950
2023-02-14T14:37:11.205Z,2533
2023-02-14T14:39:45.277Z,1406.7
2023-02-14T14:42:06.906Z,1374.7
2023-02-14T14:44:11.046Z,1344.6
2023-02-14T14:47:05.293Z,1286
2023-02-14T14:49:45.477Z,1719
2023-02-14T14:52:11.605Z,7971
2023-02-14T14:54:23.784Z,3681
2023-02-14T14:56:21.823Z,6827
2023-02-14T14:59:07.551Z,1672
2023-02-14T15:01:39.651Z,1127
2023-02-14T15:03:57.827Z,1073.2
2023-02-14T15:06:01.997Z,1020.4
2023-02-14T15:08:54.281Z,1007.6
2023-02-14T15:11:32.760Z,965.1
2023-02-14T15:13:57.118Z,949.7
2023-02-14T15:16:07.318Z,926.7
2023-02-14T15:19:06.059Z,896
2023-02-14T15:21:50.561Z,853.4
2023-02-14T15:24:21.058Z,826.2
2023-02-14T15:26:37.379Z,810.5
2023-02-14T15:28:39.792Z,780.1
2023-02-14T15:31:30.567Z,741.4
2023-02-14T15:34:06.963Z,712.9
2023-02-14T15:36:29.650Z,649.7
2023-02-14T15:38:38.268Z,591.2
2023-02-14T15:41:34.901Z,540.1
2023-02-14T15:44:17.780Z,510.2
2023-02-14T15:46:46.476Z,474.4
2023-02-14T15:49:01.100Z,449.2
2023-02-14T15:51:01.582Z,433.2
2023-02-14T15:53:50.251Z,406.8
2023-02-14T15:56:25.094Z,392.8
2023-02-14T15:58:45.575Z,384.8
2023-02-14T16:00:52.326Z,378.5
2023-02-14T16:03:47.311Z,360.8
2023-02-14T16:06:28.113Z,330.7
2023-02-14T16:08:55.186Z,309.2
2023-02-14T16:11:08.028Z,289.7
2023-02-14T16:13:06.696Z,269.5
2023-02-14T16:15:53.938Z,237.9
2023-02-14T16:18:26.945Z,211.9
2023-02-14T16:20:45.799Z,188.2
2023-02-14T16:22:50.824Z,171.6
2023-02-14T16:25:44.064Z,149.04
2023-02-14T16:28:23.127Z,130.92
2023-02-14T16:30:48.124Z,113.4
2023-02-14T16:32:59.384Z,96.92
2023-02-14T16:34:56.118Z,84.56
2023-02-14T16:37:41.410Z,67.72
2023-02-14T16:40:13.297Z,55.22
2023-02-14T16:42:29.404Z,46.26
2023-02-14T16:44:32.278Z,36.21
2023-02-14T16:47:23.866Z,26.11
2023-02-14T16:50:01.175Z,19.4
2023-02-14T16:52:24.345Z,14.01
2023-02-14T16:54:33.686Z,10.65
2023-02-14T16:57:31.393Z,6.8
2023-02-14T17:00:14.919Z,4.12
2023-02-14T17:02:44.476Z,2.68
2023-02-14T17:04:59.867Z,1.66
2023-02-14T17:07:01.208Z,1.15
2023-02-14T17:09:50.755Z,0.69
2023-02-14T17:12:26.332Z,0.46
2023-02-14T17:14:47.962Z,0.35
2023-02-14T17:16:55.314Z,0.31
2023-02-14T17:19:52.703Z,0.19
2023-02-14T17:22:33.071Z,0.15
2023-02-14T17:25:00.720Z,0.13
2023-02-14T17:27:14.243Z,0.11
2023-02-14T17:29:13.828Z,0.1
2023-02-14T17:34:35.026Z,0.07
2023-02-14T17:49:12.397Z,0.06
2023-02-14T17:51:10.281Z,0.05
2023-02-14T17:53:58.594Z,0.03
2023-02-14T18:06:20.165Z,0.04
2023-02-14T18:10:54.414Z,0.03
2023-02-14T18:13:52.791Z,0.04
2023-02-14T18:19:07.202Z,0.03
2023-02-14T18:28:52.077Z,0.04
2023-02-14T18:33:23.353Z,0.03
2023-02-14T18:36:18.856Z,0.04
2023-02-14T18:39:01.303Z,0.03
2023-02-14T18:41:29.752Z,0.04
2023-02-14T18:51:07.433Z,0.03
2023-02-14T18:53:27.946Z,0.04
2023-02-14T18:55:34.476Z,0.03
2023-02-14T18:58:29.148Z,0.04
2023-02-14T19:01:09.861Z,0.03
2023-02-14T19:13:07.082Z,0.04
2023-02-14T19:23:01.619Z,0.05
2023-02-14T20:09:21.065Z,0.06
2023-02-14T20:14:23.499Z,0.05
2023-02-14T20:17:04.857Z,0.06
2023-02-14T20:21:45.469Z,0.05
2023-02-14T20:31:25.340Z,0.06
2023-02-14T20:33:30.769Z,0.05
2023-02-14T20:41:29.938Z,0.06
2023-02-14T20:45:39.202Z,0.05
2023-02-14T20:48:25.181Z,0.06
2023-02-14T20:53:14.732Z,0.05
2023-02-14T20:55:18.571Z,0.06
2023-02-14T20:58:10.651Z,0.05
2023-02-14T21:03:12.014Z,0.06
2023-02-14T21:08:19.921Z,0.05
2023-02-14T21:20:43.032Z,0.06
2023-02-14T21:23:19.356Z,0.05
2023-02-14T21:50:01.037Z,0.04
2023-02-14T21:52:55.364Z,0.05
2023-02-14T21:58:02.372Z,0.04
2023-02-14T22:14:48.228Z,0.05
2023-02-14T22:17:27.089Z,0.04
2023-02-14T23:01:24.160Z,0.03
2023-02-14T23:03:45.204Z,0.04
2023-02-14T23:08:47.716Z,0.03
